createdAt,value
2022-10-05T00:01:04.688Z,3.00
2022-10-05T00:03:38.563Z,4.00
2022-10-05T00:06:11.581Z,4.25
2022-10-05T00:08:45.307Z,4.50
2022-10-05T00:11:17.768Z,4.00
2022-10-05T00:13:48.627Z,4.75
2022-10-05T00:16:22.958Z,4.00
2022-10-05T00:18:55.030Z,3.75
2022-10-05T00:21:35.335Z,4.00
2022-10-05T00:24:12.164Z,4.25
2022-10-05T00:26:47.356Z,4.25
2022-10-05T00:29:24.961Z,4.25
2022-10-05T00:31:56.189Z,4.50
2022-10-05T00:34:28.376Z,3.25
2022-10-05T00:37:02.114Z,3.75
2022-10-05T00:39:32.323Z,4.50
2022-10-05T00:42:21.993Z,4.25
2022-10-05T00:45:22.863Z,5.50
2022-10-05T00:48:16.063Z,4.25
2022-10-05T00:51:09.674Z,4.00
2022-10-05T00:54:18.522Z,4.50
2022-10-05T00:57:07.557Z,5.50
2022-10-05T00:59:59.980Z,4.00
2022-10-05T01:02:47.418Z,5.00
2022-10-05T01:05:47.029Z,5.00
2022-10-05T01:08:46.290Z,5.00
2022-10-05T01:11:54.563Z,4.25
2022-10-05T01:14:45.261Z,5.00
2022-10-05T01:17:53.110Z,4.00
2022-10-05T01:21:01.839Z,5.50
2022-10-05T01:24:06.874Z,4.25
2022-10-05T01:27:11.007Z,4.50
2022-10-05T01:30:14.557Z,5.00
2022-10-05T01:32:57.268Z,4.75
2022-10-05T01:36:07.917Z,5.00
2022-10-05T01:39:01.117Z,3.00
2022-10-05T01:42:00.190Z,5.00
2022-10-05T01:45:29.466Z,4.00
2022-10-05T01:48:21.424Z,4.00
2022-10-05T01:51:06.652Z,4.75
2022-10-05T01:53:55.295Z,5.00
2022-10-05T01:56:39.667Z,4.75
2022-10-05T01:59:38.394Z,6.00
2022-10-05T02:02:22.172Z,5.00
2022-10-05T02:05:13.136Z,6.00
2022-10-05T02:07:49.196Z,6.00
2022-10-05T02:10:53.154Z,5.25
2022-10-05T02:14:12.091Z,3.25
2022-10-05T02:16:47.135Z,4.00
2022-10-05T02:19:27.797Z,5.25
2022-10-05T02:22:09.603Z,4.00
2022-10-05T02:24:56.012Z,3.75
2022-10-05T02:27:57.342Z,3.50
2022-10-05T02:30:31.387Z,4.50
2022-10-05T02:33:11.561Z,6.00
2022-10-05T02:35:43.135Z,5.00
2022-10-05T02:38:15.624Z,5.00
2022-10-05T02:41:16.232Z,6.00
2022-10-05T02:44:13.592Z,5.00
2022-10-05T02:46:56.049Z,4.00
2022-10-05T02:50:03.340Z,6.00
2022-10-05T02:53:18.653Z,4.75
2022-10-05T02:55:51.730Z,5.75
2022-10-05T02:58:31.549Z,6.25
2022-10-05T03:01:14.747Z,6.00
2022-10-05T03:04:20.850Z,5.75
2022-10-05T03:07:24.906Z,5.00
2022-10-05T03:10:10.507Z,5.50
2022-10-05T03:12:57.355Z,5.00
2022-10-05T03:15:50.187Z,5.50
2022-10-05T03:18:30.949Z,5.75
2022-10-05T03:21:46.615Z,5.75
2022-10-05T03:24:36.782Z,5.25
2022-10-05T03:27:26.930Z,4.00
2022-10-05T03:30:13.805Z,5.00
2022-10-05T03:32:51.513Z,5.50
2022-10-05T03:35:34.308Z,4.50
2022-10-05T03:38:27.267Z,4.25
2022-10-05T03:41:16.355Z,5.25
2022-10-05T03:44:02.183Z,5.00
2022-10-05T03:46:59.512Z,6.00
2022-10-05T03:50:08.742Z,3.25
2022-10-05T03:53:05.241Z,3.75
2022-10-05T03:55:43.399Z,3.50
2022-10-05T03:58:21.046Z,3.75
2022-10-05T04:00:58.060Z,4.25
2022-10-05T04:03:44.970Z,4.00
2022-10-05T04:07:02.465Z,4.00
2022-10-05T04:09:38.465Z,4.25
2022-10-05T04:12:37.233Z,4.25
2022-10-05T04:15:24.287Z,4.25
2022-10-05T04:18:08.966Z,6.00
2022-10-05T04:20:47.922Z,5.75
2022-10-05T04:23:47.087Z,5.25
2022-10-05T04:26:33.331Z,5.00
2022-10-05T04:29:27.374Z,5.00
2022-10-05T04:32:15.670Z,4.00
2022-10-05T04:35:13.414Z,5.00
2022-10-05T04:38:28.741Z,5.00
2022-10-05T04:41:23.893Z,4.75
2022-10-05T04:44:04.049Z,5.25
2022-10-05T04:47:02.817Z,6.00
2022-10-05T04:50:07.429Z,5.00
2022-10-05T04:52:59.175Z,5.00
2022-10-05T04:55:57.688Z,4.75
2022-10-05T04:58:41.422Z,5.00
2022-10-05T05:01:42.475Z,5.00
2022-10-05T05:04:43.258Z,5.25
2022-10-05T05:07:19.476Z,5.00
2022-10-05T05:10:08.718Z,5.00
2022-10-05T05:13:12.083Z,5.00
2022-10-05T05:16:15.909Z,3.00
2022-10-05T05:19:20.494Z,4.00
2022-10-05T05:21:59.820Z,4.00
2022-10-05T05:24:51.586Z,4.25
2022-10-05T05:27:47.444Z,4.75
2022-10-05T05:30:52.437Z,3.00
2022-10-05T05:33:31.469Z,5.25
2022-10-05T05:36:24.318Z,4.25
2022-10-05T05:39:10.837Z,4.00
2022-10-05T05:41:50.223Z,4.75
2022-10-05T05:44:45.254Z,5.50
2022-10-05T05:47:29.815Z,3.50
2022-10-05T05:50:13.681Z,5.00
2022-10-05T05:52:46.471Z,5.00
2022-10-05T05:55:30.682Z,5.00
2022-10-05T05:58:40.255Z,5.00
2022-10-05T06:01:39.535Z,4.25
2022-10-05T06:04:46.798Z,5.00
2022-10-05T06:07:30.729Z,3.50
2022-10-05T06:10:07.886Z,5.00
2022-10-05T06:12:51.287Z,4.25
2022-10-05T06:16:10.533Z,4.75
2022-10-05T06:18:47.031Z,4.50
2022-10-05T06:21:26.263Z,4.00
2022-10-05T06:24:30.377Z,4.50
2022-10-05T06:27:10.422Z,4.50
2022-10-05T06:30:05.353Z,3.75
2022-10-05T06:32:49.774Z,5.00
2022-10-05T06:35:47.841Z,4.00
2022-10-05T06:38:57.422Z,4.75
2022-10-05T06:41:49.334Z,4.25
2022-10-05T06:44:41.724Z,5.25
2022-10-05T06:48:05.193Z,3.00
2022-10-05T06:51:36.759Z,2.50
2022-10-05T06:54:58.112Z,5.75
2022-10-05T06:57:53.237Z,4.00
2022-10-05T07:00:36.443Z,5.25
2022-10-05T07:03:15.482Z,4.00
2022-10-05T07:06:20.567Z,2.75
2022-10-05T07:09:04.259Z,5.00
2022-10-05T07:12:10.152Z,6.00
2022-10-05T07:14:55.581Z,4.00
2022-10-05T07:17:59.663Z,5.50
2022-10-05T07:20:55.529Z,2.33
2022-10-05T07:23:33.788Z,4.25
2022-10-05T07:26:27.688Z,6.00
2022-10-05T07:29:12.142Z,5.00
2022-10-05T07:32:07.635Z,7.33
2022-10-05T07:35:35.884Z,5.25
2022-10-05T07:38:15.080Z,6.00
2022-10-05T07:41:12.761Z,7.00
2022-10-05T07:44:12.348Z,6.00
2022-10-05T07:46:52.696Z,6.50
2022-10-05T07:50:08.135Z,7.00
2022-10-05T07:52:57.902Z,5.00
2022-10-05T07:55:43.327Z,5.00
2022-10-05T07:58:29.683Z,6.00
2022-10-05T08:01:06.418Z,3.00
2022-10-05T08:04:13.250Z,5.00
2022-10-05T08:06:52.024Z,6.00
2022-10-05T08:10:01.723Z,4.67
2022-10-05T08:13:02.491Z,4.00
2022-10-05T08:15:57.829Z,6.00
2022-10-05T08:18:49.533Z,6.25
2022-10-05T08:21:39.202Z,5.67
2022-10-05T08:24:41.255Z,6.00
2022-10-05T08:27:19.588Z,6.00
2022-10-05T08:30:20.756Z,6.00
2022-10-05T08:32:52.704Z,6.33
2022-10-05T08:35:48.809Z,7.00
2022-10-05T08:38:24.819Z,4.25
2022-10-05T08:41:09.290Z,4.00
2022-10-05T08:43:59.274Z,7.00
2022-10-05T08:47:06.749Z,2.67
2022-10-05T08:49:58.677Z,6.33
2022-10-05T08:52:35.026Z,3.33
2022-10-05T08:55:51.074Z,6.00
2022-10-05T08:58:36.308Z,6.00
2022-10-05T09:01:08.226Z,6.33
2022-10-05T09:04:04.102Z,5.67
2022-10-05T09:07:11.228Z,7.00
2022-10-05T09:10:01.834Z,5.00
2022-10-05T09:12:49.355Z,5.00
2022-10-05T09:15:49.873Z,6.00
2022-10-05T09:18:41.374Z,6.33
2022-10-05T09:21:30.789Z,7.00
2022-10-05T09:24:11.989Z,5.33
2022-10-05T09:26:46.704Z,5.67
2022-10-05T09:29:55.650Z,6.00
2022-10-05T09:33:01.645Z,6.00
2022-10-05T09:36:01.607Z,6.33
2022-10-05T09:38:56.320Z,6.67
2022-10-05T09:41:30.544Z,8.00
2022-10-05T09:44:13.619Z,7.33
2022-10-05T09:46:53.041Z,6.00
2022-10-05T09:50:03.781Z,5.00
2022-10-05T09:53:14.653Z,6.33
2022-10-05T09:59:36.787Z,6.00
2022-10-05T10:02:21.025Z,4.67
2022-10-05T10:05:22.253Z,6.67
2022-10-05T10:08:17.017Z,4.33
2022-10-05T10:11:17.563Z,6.00
2022-10-05T10:14:11.040Z,5.00
2022-10-05T10:16:58.957Z,6.00
2022-10-05T10:19:49.292Z,5.33
2022-10-05T10:22:31.919Z,5.33
2022-10-05T10:25:36.576Z,6.00
2022-10-05T10:28:40.201Z,6.00
2022-10-05T10:31:31.371Z,4.67
2022-10-05T10:34:04.925Z,5.67
2022-10-05T10:36:53.790Z,5.00
2022-10-05T10:40:04.841Z,6.00
2022-10-05T10:42:49.744Z,4.00
2022-10-05T10:45:46.061Z,6.00
2022-10-05T10:48:30.197Z,6.00
2022-10-05T10:51:20.978Z,7.00
2022-10-05T10:54:08.612Z,7.00
2022-10-05T10:56:51.169Z,6.00
2022-10-05T10:59:38.649Z,4.33
2022-10-05T11:02:29.619Z,6.33
2022-10-05T11:05:04.628Z,6.33
2022-10-05T11:07:46.112Z,6.50
2022-10-05T11:10:26.746Z,5.00
2022-10-05T11:13:37.783Z,5.00
2022-10-05T11:16:49.108Z,4.67
2022-10-05T11:20:02.573Z,7.00
2022-10-05T11:22:51.540Z,6.00
2022-10-05T11:25:43.880Z,5.00
2022-10-05T11:28:45.646Z,4.33
2022-10-05T11:31:35.123Z,6.00
2022-10-05T11:34:19.898Z,6.00
2022-10-05T11:37:18.519Z,6.00
2022-10-05T11:40:27.422Z,4.67
2022-10-05T11:43:52.093Z,6.25
2022-10-05T11:46:41.923Z,6.00
2022-10-05T11:49:26.855Z,6.00
2022-10-05T11:52:12.743Z,7.00
2022-10-05T11:57:59.116Z,6.25
2022-10-05T12:00:48.032Z,8.00
2022-10-05T12:03:34.300Z,6.50
2022-10-05T12:06:22.986Z,6.00
2022-10-05T12:09:34.634Z,7.00
2022-10-05T12:12:23.483Z,8.00
2022-10-05T12:15:20.302Z,6.33
2022-10-05T12:18:14.524Z,6.25
2022-10-05T12:20:56.799Z,8.00
2022-10-05T12:23:42.178Z,6.25
2022-10-05T12:26:26.884Z,7.75
2022-10-05T12:29:08.122Z,6.25
2022-10-05T12:31:41.891Z,7.25
2022-10-05T12:34:34.772Z,6.50
2022-10-05T12:37:15.134Z,6.75
2022-10-05T12:39:56.706Z,7.50
2022-10-05T12:43:02.252Z,7.25
2022-10-05T12:45:58.154Z,7.75
2022-10-05T12:48:34.891Z,7.25
2022-10-05T12:51:20.194Z,6.50
2022-10-05T12:54:20.523Z,8.00
2022-10-05T12:57:07.417Z,6.75
2022-10-05T12:59:54.944Z,8.00
2022-10-05T13:02:48.409Z,7.50
2022-10-05T13:05:43.092Z,7.25
2022-10-05T13:08:36.936Z,8.00
2022-10-05T13:11:22.704Z,7.00
2022-10-05T13:14:17.185Z,7.75
2022-10-05T13:17:00.357Z,8.00
2022-10-05T13:19:59.803Z,8.25
2022-10-05T13:22:59.353Z,7.00
2022-10-05T13:25:39.672Z,5.75
2022-10-05T13:28:20.700Z,5.75
2022-10-05T13:31:04.386Z,7.00
2022-10-05T13:33:52.596Z,9.00
2022-10-05T13:36:40.806Z,7.25
2022-10-05T13:39:34.300Z,8.00
2022-10-05T13:42:26.412Z,7.25
2022-10-05T13:45:05.045Z,9.00
2022-10-05T13:48:01.567Z,7.00
2022-10-05T13:50:38.371Z,7.33
2022-10-05T13:53:31.106Z,6.33
2022-10-05T13:56:10.028Z,8.33
2022-10-05T13:59:26.287Z,6.00
2022-10-05T14:02:06.794Z,8.33
2022-10-05T14:04:52.545Z,6.00
2022-10-05T14:07:45.506Z,7.33
2022-10-05T14:10:29.768Z,8.67
2022-10-05T14:13:03.176Z,7.00
2022-10-05T14:15:42.070Z,6.00
2022-10-05T14:18:29.275Z,6.33
2022-10-05T14:21:09.604Z,6.00
2022-10-05T14:23:47.726Z,6.00
2022-10-05T14:26:39.706Z,7.00
2022-10-05T14:29:16.546Z,7.00
2022-10-05T14:32:06.776Z,5.67
2022-10-05T14:34:45.000Z,6.67
2022-10-05T14:37:22.335Z,7.00
2022-10-05T14:40:06.384Z,7.33
2022-10-05T14:42:47.340Z,7.00
2022-10-05T14:45:30.764Z,6.00
2022-10-05T14:48:12.186Z,7.00
2022-10-05T14:50:56.924Z,6.00
2022-10-05T14:53:38.855Z,6.00
2022-10-05T14:56:37.613Z,5.25
2022-10-05T14:59:28.853Z,5.00
2022-10-05T15:02:17.188Z,6.00
2022-10-05T15:05:03.616Z,5.50
2022-10-05T15:07:39.598Z,5.00
2022-10-05T15:10:32.818Z,4.00
2022-10-05T15:13:21.049Z,5.25
2022-10-05T15:16:20.948Z,5.00
2022-10-05T15:19:09.880Z,4.75
2022-10-05T15:21:57.097Z,5.50
2022-10-05T15:24:43.474Z,6.00
2022-10-05T15:27:27.957Z,2.50
2022-10-05T15:30:13.211Z,4.00
2022-10-05T15:33:12.475Z,5.00
2022-10-05T15:36:05.170Z,3.75
2022-10-05T15:39:13.752Z,2.75
2022-10-05T15:42:00.140Z,4.00
2022-10-05T15:45:07.151Z,4.00
2022-10-05T15:47:57.838Z,4.00
2022-10-05T15:50:48.751Z,4.00
2022-10-05T15:53:22.588Z,4.50
2022-10-05T15:56:27.794Z,3.75
2022-10-05T15:59:21.329Z,3.75
2022-10-05T16:02:02.746Z,5.75
2022-10-05T16:05:12.099Z,2.50
2022-10-05T16:08:12.579Z,5.00
2022-10-05T16:10:48.557Z,3.50
2022-10-05T16:13:25.791Z,4.00
2022-10-05T16:16:25.229Z,3.75
2022-10-05T16:19:24.694Z,1.25
2022-10-05T16:22:31.451Z,3.75
2022-10-05T16:25:27.161Z,4.00
2022-10-05T16:28:09.050Z,3.75
2022-10-05T16:31:00.219Z,4.00
2022-10-05T16:33:46.617Z,2.25
2022-10-05T16:37:11.226Z,4.00
2022-10-05T16:40:14.703Z,5.00
2022-10-05T16:43:09.985Z,4.25
2022-10-05T16:45:48.647Z,2.75
2022-10-05T16:48:31.314Z,4.50
2022-10-05T16:51:12.246Z,4.50
2022-10-05T16:54:15.118Z,3.00
2022-10-05T16:57:27.984Z,4.00
2022-10-05T17:00:26.264Z,3.25
2022-10-05T17:03:22.989Z,4.50
2022-10-05T17:06:08.008Z,4.25
2022-10-05T17:08:46.253Z,3.50
2022-10-05T17:11:31.823Z,3.25
2022-10-05T17:14:21.780Z,4.75
2022-10-05T17:17:28.234Z,3.25
2022-10-05T17:20:40.221Z,5.00
2022-10-05T17:23:19.031Z,4.25
2022-10-05T17:26:17.944Z,3.50
2022-10-05T17:28:55.107Z,5.00
2022-10-05T17:31:29.282Z,4.00
2022-10-05T17:34:17.287Z,3.00
2022-10-05T17:36:54.876Z,4.25
2022-10-05T17:39:50.153Z,5.00
2022-10-05T17:42:31.262Z,4.75
2022-10-05T17:45:13.741Z,4.25
2022-10-05T17:48:12.242Z,2.50
2022-10-05T17:51:10.749Z,4.50
2022-10-05T17:54:10.515Z,4.00
2022-10-05T17:56:50.228Z,5.75
2022-10-05T17:59:59.430Z,5.75
2022-10-05T18:02:43.696Z,4.75
2022-10-05T18:05:46.260Z,6.00
2022-10-05T18:08:18.694Z,4.00
2022-10-05T18:11:36.684Z,5.25
2022-10-05T18:14:54.936Z,3.50
2022-10-05T18:18:18.282Z,4.25
2022-10-05T18:21:14.482Z,6.00
2022-10-05T18:24:23.620Z,5.00
2022-10-05T18:27:32.087Z,5.50
2022-10-05T18:30:23.988Z,5.00
2022-10-05T18:33:14.011Z,4.75
2022-10-05T18:35:57.012Z,3.75
2022-10-05T18:38:41.252Z,4.75
2022-10-05T18:41:27.707Z,5.50
2022-10-05T18:44:28.754Z,4.00
2022-10-05T18:47:25.788Z,3.75
2022-10-05T18:50:03.129Z,4.00
2022-10-05T18:52:47.746Z,4.00
2022-10-05T18:55:40.351Z,4.00
2022-10-05T18:58:53.326Z,5.00
2022-10-05T19:01:41.083Z,4.25
2022-10-05T19:04:43.565Z,1.00
2022-10-05T19:08:02.538Z,5.00
2022-10-05T19:10:48.388Z,3.75
2022-10-05T19:13:58.597Z,3.75
2022-10-05T19:16:56.312Z,4.25
2022-10-05T19:19:40.164Z,5.00
2022-10-05T19:22:48.122Z,5.00
2022-10-05T19:26:01.442Z,3.00
2022-10-05T19:29:07.226Z,4.75
2022-10-05T19:32:30.560Z,4.50
2022-10-05T19:35:22.363Z,4.00
2022-10-05T19:40:57.998Z,4.00
2022-10-05T19:43:36.990Z,4.00
2022-10-05T19:46:32.120Z,4.00
2022-10-05T19:49:02.660Z,4.00
2022-10-05T19:51:39.134Z,4.25
2022-10-05T19:54:34.450Z,4.00
2022-10-05T19:57:19.812Z,3.50
2022-10-05T19:59:52.354Z,5.00
2022-10-05T20:02:29.359Z,5.00
2022-10-05T20:05:08.711Z,5.75
2022-10-05T20:07:39.141Z,4.00
2022-10-05T20:10:33.054Z,3.00
2022-10-05T20:13:06.297Z,4.50
2022-10-05T20:15:58.047Z,4.75
2022-10-05T20:19:06.731Z,3.75
2022-10-05T20:21:52.609Z,4.25
2022-10-05T20:24:30.642Z,3.00
2022-10-05T20:27:08.704Z,4.25
2022-10-05T20:29:43.488Z,4.50
2022-10-05T20:32:16.139Z,5.00
2022-10-05T20:34:50.403Z,4.50
2022-10-05T20:37:22.449Z,5.00
2022-10-05T20:39:55.075Z,4.00
2022-10-05T20:42:26.233Z,4.00
2022-10-05T20:45:00.329Z,6.00
2022-10-05T20:47:30.279Z,3.75
2022-10-05T20:50:02.220Z,4.50
2022-10-05T20:52:33.091Z,5.00
2022-10-05T20:55:12.219Z,4.00
2022-10-05T20:57:43.778Z,4.00
2022-10-05T21:00:14.936Z,4.00
2022-10-05T21:02:50.244Z,3.40
2022-10-05T21:05:23.928Z,4.25
2022-10-05T21:07:57.758Z,5.00
2022-10-05T21:10:30.518Z,3.50
2022-10-05T21:13:03.545Z,4.00
2022-10-05T21:15:34.962Z,4.00
2022-10-05T21:18:07.469Z,5.00
2022-10-05T21:20:40.337Z,4.50
2022-10-05T21:23:17.507Z,4.25
2022-10-05T21:25:50.110Z,5.00
2022-10-05T21:28:24.385Z,5.25
2022-10-05T21:30:55.654Z,5.00
2022-10-05T21:33:28.811Z,5.00
2022-10-05T21:36:05.679Z,4.00
2022-10-05T21:38:36.369Z,4.25
2022-10-05T21:41:06.935Z,4.00
2022-10-05T21:43:38.600Z,4.25
2022-10-05T21:46:10.101Z,4.50
2022-10-05T21:48:42.100Z,4.00
2022-10-05T21:51:17.237Z,5.25
2022-10-05T21:53:55.510Z,5.00
2022-10-05T21:56:40.465Z,5.00
2022-10-05T21:59:17.355Z,4.25
2022-10-05T22:01:47.763Z,3.80
2022-10-05T22:04:18.801Z,1.25
2022-10-05T22:06:50.654Z,5.00
2022-10-05T22:09:21.548Z,4.00
2022-10-05T22:11:52.721Z,4.20
2022-10-05T22:14:23.732Z,4.40
2022-10-05T22:16:55.743Z,4.40
2022-10-05T22:19:25.186Z,4.40
2022-10-05T22:21:56.798Z,4.80
2022-10-05T22:24:28.625Z,4.40
2022-10-05T22:27:01.002Z,4.20
2022-10-05T22:29:33.402Z,3.60
2022-10-05T22:32:07.709Z,2.00
2022-10-05T22:34:39.133Z,3.00
2022-10-05T22:37:15.253Z,3.40
2022-10-05T22:39:45.093Z,3.00
2022-10-05T22:42:16.385Z,4.00
2022-10-05T22:44:46.113Z,4.60
2022-10-05T22:47:15.814Z,4.00
2022-10-05T22:49:45.396Z,5.00
2022-10-05T22:52:15.876Z,4.00
2022-10-05T22:54:49.449Z,3.80
2022-10-05T22:57:20.925Z,4.00
2022-10-05T22:59:52.850Z,3.60
2022-10-05T23:02:22.366Z,3.00
2022-10-05T23:04:54.151Z,3.00
2022-10-05T23:07:25.131Z,2.00
2022-10-05T23:09:57.072Z,4.00
2022-10-05T23:12:29.152Z,4.00
2022-10-05T23:14:59.204Z,2.00
2022-10-05T23:17:32.538Z,3.00
2022-10-05T23:20:06.877Z,3.00
2022-10-05T23:22:38.128Z,3.00
2022-10-05T23:25:13.087Z,2.40
2022-10-05T23:27:45.002Z,3.20
2022-10-05T23:30:14.726Z,4.00
2022-10-05T23:32:46.631Z,3.00
2022-10-05T23:35:20.074Z,4.20
2022-10-05T23:37:49.244Z,3.00
2022-10-05T23:40:21.391Z,3.80
2022-10-05T23:42:52.094Z,4.00
2022-10-05T23:45:27.069Z,4.00
2022-10-05T23:47:57.080Z,4.25
2022-10-05T23:50:29.182Z,3.00
2022-10-05T23:53:05.581Z,3.00
2022-10-05T23:55:36.946Z,2.00
2022-10-05T23:58:09.672Z,3.00
